createdAt,value
2018-11-02T00:00:02.960Z,9.5
2018-11-02T00:05:02.871Z,9.5
2018-11-02T00:10:02.608Z,9.5
2018-11-02T00:15:02.299Z,9.5
2018-11-02T00:20:03.057Z,9.5
2018-11-02T00:25:02.677Z,9.5
2018-11-02T00:30:02.418Z,9.5
2018-11-02T00:35:03.055Z,9.5
2018-11-02T00:40:02.762Z,9.5
2018-11-02T00:45:02.434Z,9.5
2018-11-02T00:50:03.191Z,9.5
2018-11-02T00:55:02.774Z,9.5
2018-11-02T01:00:02.424Z,9.5
2018-11-02T01:05:02.925Z,9.5
2018-11-02T01:10:02.733Z,9.5
2018-11-02T01:15:02.407Z,9.5
2018-11-02T01:20:03.067Z,9.5
2018-11-02T01:25:02.703Z,9.5
2018-11-02T01:30:02.324Z,9.5
2018-11-02T01:35:03.007Z,9.5
2018-11-02T01:40:02.765Z,9.5
2018-11-02T01:45:02.903Z,9.5
2018-11-02T01:50:02.396Z,9.5
2018-11-02T01:55:03.063Z,9.6
2018-11-02T02:00:02.670Z,10.0
2018-11-02T02:05:02.295Z,10.1
2018-11-02T02:10:03.048Z,10.1
2018-11-02T02:15:02.652Z,10.3
2018-11-02T02:20:02.563Z,10.3
2018-11-02T02:25:03.208Z,10.5
2018-11-02T02:30:02.403Z,10.5
2018-11-02T02:35:03.107Z,10.3
2018-11-02T02:40:03.385Z,10.5
2018-11-02T02:45:02.989Z,10.3
2018-11-02T02:50:02.975Z,10.3
2018-11-02T02:55:02.668Z,10.3
2018-11-02T03:00:02.427Z,10.1
2018-11-02T03:05:03.131Z,10.1
2018-11-02T03:10:02.986Z,10.1
2018-11-02T03:15:02.602Z,10.1
2018-11-02T03:20:03.276Z,10.1
2018-11-02T03:25:02.904Z,10.1
2018-11-02T03:30:02.569Z,9.8
2018-11-02T03:35:03.240Z,9.8
2018-11-02T03:40:03.098Z,9.8
2018-11-02T03:45:02.770Z,9.8
2018-11-02T03:50:02.794Z,10.0
2018-11-02T03:55:02.365Z,10.0
2018-11-02T04:00:02.843Z,10.1
2018-11-02T04:05:02.664Z,10.0
2018-11-02T04:10:02.620Z,9.5
2018-11-02T04:15:03.266Z,9.3
2018-11-02T04:20:02.948Z,9.3
2018-11-02T04:25:02.660Z,9.3
2018-11-02T04:30:02.296Z,9.3
2018-11-02T04:35:03.020Z,9.3
2018-11-02T04:40:02.700Z,9.3
2018-11-02T04:45:02.392Z,9.3
2018-11-02T04:50:03.026Z,9.3
2018-11-02T04:55:02.724Z,9.3
2018-11-02T05:00:03.277Z,9.3
2018-11-02T05:05:02.877Z,9.3
2018-11-02T05:10:02.666Z,9.3
2018-11-02T05:15:02.727Z,9.3
2018-11-02T05:20:02.383Z,9.1
2018-11-02T05:25:02.965Z,9.0
2018-11-02T05:30:02.671Z,9.0
2018-11-02T05:35:02.456Z,8.8
2018-11-02T05:40:03.142Z,8.8
2018-11-02T05:45:02.775Z,8.8
2018-11-02T05:50:02.449Z,8.8
2018-11-02T05:55:03.285Z,8.6
2018-11-02T06:00:02.825Z,8.3
2018-11-02T06:05:02.438Z,8.3
2018-11-02T06:10:03.394Z,8.3
2018-11-02T06:15:03.022Z,8.3
2018-11-02T06:20:02.747Z,8.3
2018-11-02T06:25:02.376Z,8.1
2018-11-02T06:30:03.023Z,8.1
2018-11-02T06:35:02.678Z,8.1
2018-11-02T06:40:02.415Z,8.1
2018-11-02T06:45:03.056Z,8.0
2018-11-02T06:50:02.924Z,8.0
2018-11-02T06:55:03.172Z,8.0
2018-11-02T07:00:03.422Z,8.1
2018-11-02T07:05:02.570Z,8.0
2018-11-02T07:10:02.310Z,8.1
2018-11-02T07:15:03.222Z,8.1
2018-11-02T07:20:03.155Z,8.1
2018-11-02T07:25:02.796Z,8.1
2018-11-02T07:30:02.353Z,8.1
2018-11-02T07:35:03.133Z,8.1
2018-11-02T07:40:02.805Z,8.1
2018-11-02T07:45:02.519Z,8.1
2018-11-02T07:50:03.211Z,8.3
2018-11-02T07:55:02.871Z,8.3
2018-11-02T08:00:02.721Z,8.3
2018-11-02T08:05:02.331Z,8.5
2018-11-02T08:10:03.040Z,8.3
2018-11-02T08:15:02.600Z,8.5
2018-11-02T08:20:03.225Z,8.5
2018-11-02T08:25:02.931Z,8.3
2018-11-02T08:30:02.942Z,8.3
2018-11-02T08:35:02.470Z,8.3
2018-11-02T08:40:03.091Z,8.3
2018-11-02T08:45:02.675Z,8.5
2018-11-02T08:50:03.252Z,8.5
2018-11-02T08:55:02.803Z,8.3
2018-11-02T09:00:02.535Z,8.3
2018-11-02T09:05:02.683Z,8.1
2018-11-02T09:10:03.029Z,8.1
2018-11-02T09:15:02.620Z,7.9
2018-11-02T09:20:02.314Z,8.1
2018-11-02T09:25:02.929Z,8.1
2018-11-02T09:30:02.582Z,8.3
2018-11-02T09:35:03.179Z,8.5
2018-11-02T09:40:02.797Z,8.5
2018-11-02T09:45:02.434Z,8.3
2018-11-02T09:50:03.078Z,8.3
2018-11-02T09:55:02.767Z,8.5
2018-11-02T10:00:02.449Z,8.6
2018-11-02T10:05:03.042Z,8.5
2018-11-02T10:10:02.697Z,8.6
2018-11-02T10:15:02.449Z,9.3
2018-11-02T10:20:03.091Z,9.1
2018-11-02T10:25:02.650Z,8.8
2018-11-02T10:30:02.295Z,9.0
2018-11-02T10:35:02.923Z,9.1
2018-11-02T10:40:02.621Z,9.1
2018-11-02T10:45:03.325Z,9.1
2018-11-02T10:50:02.904Z,9.6
2018-11-02T10:55:02.578Z,9.1
2018-11-02T11:00:03.280Z,10.1
2018-11-02T11:05:02.929Z,10.0
2018-11-02T11:10:02.619Z,8.8
2018-11-02T11:15:02.370Z,8.6
2018-11-02T11:20:03.044Z,8.8
2018-11-02T11:25:02.694Z,10.0
2018-11-02T11:30:02.385Z,10.5
2018-11-02T11:35:03.011Z,10.6
2018-11-02T11:40:02.688Z,10.8
2018-11-02T11:45:02.453Z,10.8
2018-11-02T11:50:03.108Z,10.6
2018-11-02T11:55:02.759Z,10.5
2018-11-02T12:00:02.409Z,10.3
2018-11-02T12:05:03.203Z,10.3
2018-11-02T12:10:02.736Z,10.1
2018-11-02T12:15:02.387Z,11.0
2018-11-02T12:20:03.033Z,12.0
2018-11-02T12:25:02.956Z,11.0
2018-11-02T12:30:02.662Z,10.8
2018-11-02T12:35:02.349Z,10.8
2018-11-02T12:40:03.129Z,10.8
2018-11-02T12:45:02.816Z,12.5
2018-11-02T12:50:02.524Z,13.6
2018-11-02T12:55:02.811Z,11.6
2018-11-02T13:00:02.609Z,11.1
2018-11-02T13:05:03.217Z,12.1
2018-11-02T13:10:02.889Z,12.8
2018-11-02T13:15:02.503Z,12.5
2018-11-02T13:20:02.375Z,12.8
2018-11-02T13:25:02.336Z,13.1
2018-11-02T13:30:03.156Z,12.3
2018-11-02T13:35:02.607Z,12.6
2018-11-02T13:40:02.342Z,12.8
2018-11-02T13:45:03.010Z,12.3
2018-11-02T13:50:02.709Z,12.3
2018-11-02T13:55:02.401Z,12.1
2018-11-02T14:00:03.129Z,12.1
2018-11-02T14:05:02.672Z,13.1
2018-11-02T14:10:02.390Z,12.8
2018-11-02T14:15:02.535Z,12.8
2018-11-02T14:20:03.274Z,12.3
2018-11-02T14:25:02.898Z,12.6
2018-11-02T14:30:02.592Z,11.0
2018-11-02T14:35:03.265Z,11.6
2018-11-02T14:40:02.945Z,11.1
2018-11-02T14:45:02.573Z,11.6
2018-11-02T14:50:03.196Z,11.6
2018-11-02T14:55:02.833Z,10.8
2018-11-02T15:00:02.739Z,10.6
2018-11-02T15:05:02.383Z,10.5
2018-11-02T15:10:03.180Z,10.5
2018-11-02T15:15:02.803Z,10.1
2018-11-02T15:20:02.453Z,10.1
2018-11-02T15:25:03.135Z,10.0
2018-11-02T15:30:02.732Z,10.0
2018-11-02T15:35:02.413Z,9.8
2018-11-02T15:40:03.216Z,9.6
2018-11-02T15:45:02.808Z,9.5
2018-11-02T15:50:02.477Z,9.3
2018-11-02T15:55:02.313Z,9.0
2018-11-02T16:00:02.986Z,9.0
2018-11-02T16:05:02.674Z,8.5
2018-11-02T16:10:02.616Z,8.3
2018-11-02T16:15:02.366Z,8.0
2018-11-02T16:20:03.144Z,7.9
2018-11-02T16:25:02.485Z,7.6
2018-11-02T16:30:03.221Z,7.5
2018-11-02T16:35:02.475Z,7.5
2018-11-02T16:40:03.149Z,7.4
2018-11-02T16:45:02.908Z,7.4
2018-11-02T16:50:02.694Z,7.1
2018-11-02T16:55:02.410Z,7.0
2018-11-02T17:00:03.094Z,7.0
2018-11-02T17:05:02.866Z,7.0
2018-11-02T17:10:02.574Z,6.9
2018-11-02T17:15:03.424Z,7.0
2018-11-02T17:20:03.162Z,6.9
2018-11-02T17:25:03.233Z,6.6
2018-11-02T17:30:02.767Z,6.6
2018-11-02T17:35:02.647Z,6.4
2018-11-02T17:40:02.382Z,6.5
2018-11-02T17:45:02.975Z,6.1
2018-11-02T17:50:02.633Z,5.9
2018-11-02T17:55:03.261Z,5.8
2018-11-02T18:00:02.914Z,5.5
2018-11-02T18:05:02.578Z,5.4
2018-11-02T18:10:03.299Z,5.4
2018-11-02T18:15:02.945Z,5.9
2018-11-02T18:20:02.673Z,5.9
2018-11-02T18:25:03.333Z,5.8
2018-11-02T18:30:03.022Z,5.5
2018-11-02T18:35:02.868Z,5.5
2018-11-02T18:40:03.087Z,5.5
2018-11-02T18:45:02.742Z,5.5
2018-11-02T18:50:02.393Z,5.4
2018-11-02T18:55:03.046Z,5.0
2018-11-02T19:00:02.679Z,5.3
2018-11-02T19:05:02.602Z,5.3
2018-11-02T19:10:02.330Z,5.0
2018-11-02T19:15:02.976Z,5.0
2018-11-02T19:20:02.976Z,5.0
2018-11-02T19:25:02.351Z,4.5
2018-11-02T19:30:03.214Z,4.5
2018-11-02T19:35:03.101Z,4.3
2018-11-02T19:40:02.565Z,4.0
2018-11-02T19:45:02.555Z,4.0
2018-11-02T19:50:02.324Z,4.0
2018-11-02T19:55:03.232Z,4.0
2018-11-02T20:00:02.654Z,4.3
2018-11-02T20:05:02.464Z,4.3
2018-11-02T20:10:02.316Z,4.0
2018-11-02T20:15:02.968Z,4.3
2018-11-02T20:20:02.960Z,4.3
2018-11-02T20:25:02.771Z,4.0
2018-11-02T20:30:02.522Z,3.7
2018-11-02T20:35:03.330Z,3.7
2018-11-02T20:40:03.265Z,3.7
2018-11-02T20:45:02.871Z,3.7
2018-11-02T20:50:02.763Z,4.0
2018-11-02T20:55:02.881Z,4.0
2018-11-02T21:00:02.853Z,4.0
2018-11-02T21:05:02.487Z,4.5
2018-11-02T21:10:03.314Z,4.3
2018-11-02T21:15:03.176Z,4.3
2018-11-02T21:20:02.476Z,4.3
2018-11-02T21:25:03.095Z,4.0
2018-11-02T21:30:02.736Z,4.0
2018-11-02T21:35:02.500Z,4.0
2018-11-02T21:40:02.337Z,3.7
2018-11-02T21:45:03.232Z,4.0
2018-11-02T21:50:02.927Z,3.7
2018-11-02T21:55:02.878Z,3.7
2018-11-02T22:00:02.499Z,3.7
2018-11-02T22:05:02.862Z,3.7
2018-11-02T22:10:02.655Z,3.7
2018-11-02T22:15:02.539Z,3.7
2018-11-02T22:20:03.286Z,3.5
2018-11-02T22:25:03.183Z,3.2
2018-11-02T22:30:02.998Z,3.5
2018-11-02T22:35:02.915Z,3.5
2018-11-02T22:40:02.754Z,3.5
2018-11-02T22:45:02.664Z,3.2
2018-11-02T22:50:02.371Z,3.5
2018-11-02T22:55:02.975Z,3.7
2018-11-02T23:00:02.628Z,3.7
2018-11-02T23:05:02.555Z,3.7
2018-11-02T23:10:03.277Z,3.2
2018-11-02T23:15:02.922Z,3.2
2018-11-02T23:20:02.884Z,3.2
2018-11-02T23:25:02.519Z,3.2
2018-11-02T23:30:03.301Z,3.2
2018-11-02T23:35:02.970Z,3.0
2018-11-02T23:40:02.751Z,3.2
2018-11-02T23:45:02.603Z,3.2
2018-11-02T23:50:03.189Z,2.9
2018-11-02T23:55:02.839Z,2.9
